createdAt,value
2023-02-24T00:00:02.156Z,0.00
2023-02-24T00:01:02.137Z,0.00
2023-02-24T00:02:02.204Z,0.00
2023-02-24T00:03:02.142Z,0.00
2023-02-24T00:04:02.119Z,0.00
2023-02-24T00:05:02.124Z,0.00
2023-02-24T00:06:02.137Z,0.00
2023-02-24T00:07:02.135Z,0.00
2023-02-24T00:08:02.137Z,0.00
2023-02-24T00:09:02.101Z,0.00
2023-02-24T00:10:02.107Z,0.00
2023-02-24T00:11:02.114Z,0.00
2023-02-24T00:12:02.097Z,0.00
2023-02-24T00:13:02.115Z,0.00
2023-02-24T00:14:02.089Z,0.00
2023-02-24T00:15:02.092Z,0.00
2023-02-24T00:16:02.114Z,0.00
2023-02-24T00:17:02.271Z,0.00
2023-02-24T00:18:02.071Z,0.00
2023-02-24T00:19:02.070Z,0.00
2023-02-24T00:20:02.075Z,0.00
2023-02-24T00:21:02.069Z,0.00
2023-02-24T00:22:02.066Z,0.00
2023-02-24T00:23:02.058Z,0.00
2023-02-24T00:24:02.039Z,0.00
2023-02-24T00:25:02.037Z,0.00
2023-02-24T00:26:02.035Z,0.00
2023-02-24T00:27:02.041Z,0.00
2023-02-24T00:28:02.025Z,0.00
2023-02-24T00:29:02.051Z,0.00
2023-02-24T00:30:02.049Z,0.00
2023-02-24T00:31:02.211Z,0.00
2023-02-24T00:32:02.175Z,0.00
2023-02-24T00:33:02.044Z,0.00
2023-02-24T00:34:02.016Z,0.00
2023-02-24T00:35:02.009Z,0.00
2023-02-24T00:36:02.004Z,0.00
2023-02-24T00:37:02.019Z,0.00
2023-02-24T00:38:01.982Z,0.00
2023-02-24T00:39:01.997Z,0.00
2023-02-24T00:40:01.970Z,0.00
2023-02-24T00:41:01.987Z,0.00
2023-02-24T00:42:01.966Z,0.00
2023-02-24T00:43:01.987Z,0.00
2023-02-24T00:44:01.972Z,0.00
2023-02-24T00:45:01.973Z,0.00
2023-02-24T00:46:01.987Z,0.00
2023-02-24T00:47:01.960Z,0.00
2023-02-24T00:48:01.962Z,0.00
2023-02-24T00:49:01.943Z,0.00
2023-02-24T00:50:01.950Z,0.00
2023-02-24T00:51:01.944Z,0.00
2023-02-24T00:52:01.927Z,0.00
2023-02-24T00:53:01.937Z,0.00
2023-02-24T00:54:01.944Z,0.00
2023-02-24T00:55:01.929Z,0.00
2023-02-24T00:56:01.916Z,0.00
2023-02-24T00:57:01.928Z,0.00
2023-02-24T00:58:01.916Z,0.00
2023-02-24T00:59:01.898Z,0.00
2023-02-24T01:00:01.893Z,0.00
2023-02-24T01:01:01.943Z,0.00
2023-02-24T01:02:01.983Z,0.00
2023-02-24T01:03:01.912Z,0.00
2023-02-24T01:04:01.964Z,0.00
2023-02-24T01:05:01.871Z,0.00
2023-02-24T01:06:01.879Z,0.00
2023-02-24T01:07:01.922Z,0.00
2023-02-24T01:08:01.883Z,0.00
2023-02-24T01:09:01.868Z,0.00
2023-02-24T01:10:01.882Z,0.00
2023-02-24T01:11:01.860Z,0.00
2023-02-24T01:12:01.904Z,0.00
2023-02-24T01:13:01.848Z,0.00
2023-02-24T01:14:01.839Z,0.00
2023-02-24T01:15:01.846Z,0.00
2023-02-24T01:16:01.877Z,0.00
2023-02-24T01:17:01.839Z,0.00
2023-02-24T01:18:01.826Z,0.00
2023-02-24T01:19:01.818Z,0.00
2023-02-24T01:20:01.867Z,0.00
2023-02-24T01:21:01.836Z,0.00
2023-02-24T01:22:01.807Z,0.00
2023-02-24T01:23:01.800Z,0.00
2023-02-24T01:24:01.805Z,0.00
2023-02-24T01:25:01.785Z,0.00
2023-02-24T01:26:01.792Z,0.00
2023-02-24T01:27:01.788Z,0.00
2023-02-24T01:28:01.780Z,0.00
2023-02-24T01:29:01.785Z,0.00
2023-02-24T01:30:01.779Z,0.00
2023-02-24T01:31:01.920Z,0.00
2023-02-24T01:32:02.049Z,0.00
2023-02-24T01:33:02.163Z,0.00
2023-02-24T01:34:01.755Z,0.00
2023-02-24T01:35:01.771Z,0.00
2023-02-24T01:36:01.734Z,0.00
2023-02-24T01:37:01.748Z,0.00
2023-02-24T01:38:01.838Z,0.00
2023-02-24T01:39:01.725Z,0.00
2023-02-24T01:40:01.727Z,0.00
2023-02-24T01:41:01.736Z,0.00
2023-02-24T01:42:01.723Z,0.00
2023-02-24T01:43:01.711Z,0.00
2023-02-24T01:44:01.727Z,0.00
2023-02-24T01:45:01.701Z,0.00
2023-02-24T01:46:01.707Z,0.00
2023-02-24T01:47:01.703Z,0.00
2023-02-24T01:48:01.688Z,0.00
2023-02-24T01:49:01.719Z,0.00
2023-02-24T01:50:01.687Z,0.00
2023-02-24T01:51:01.680Z,0.00
2023-02-24T01:52:01.677Z,0.00
2023-02-24T01:53:01.672Z,0.00
2023-02-24T01:54:01.672Z,0.00
2023-02-24T01:55:01.667Z,0.00
2023-02-24T01:56:01.663Z,0.00
2023-02-24T01:57:01.671Z,0.00
2023-02-24T01:58:01.649Z,0.00
2023-02-24T01:59:01.653Z,0.00
2023-02-24T02:00:01.647Z,0.00
2023-02-24T02:01:01.653Z,0.00
2023-02-24T02:02:01.728Z,0.00
2023-02-24T02:03:01.683Z,0.00
2023-02-24T02:04:01.614Z,0.00
2023-02-24T02:05:01.645Z,0.00
2023-02-24T02:06:01.617Z,0.00
2023-02-24T02:07:01.604Z,0.00
2023-02-24T02:08:01.612Z,0.00
2023-02-24T02:09:01.611Z,0.00
2023-02-24T02:10:01.602Z,0.00
2023-02-24T02:11:01.597Z,0.00
2023-02-24T02:12:01.591Z,0.00
2023-02-24T02:13:01.580Z,0.00
2023-02-24T02:14:01.681Z,0.00
2023-02-24T02:15:01.577Z,0.00
2023-02-24T02:16:01.632Z,0.00
2023-02-24T02:17:01.561Z,0.00
2023-02-24T02:18:01.572Z,0.00
2023-02-24T02:19:01.551Z,0.00
2023-02-24T02:20:01.542Z,0.00
2023-02-24T02:21:01.575Z,0.00
2023-02-24T02:22:01.532Z,0.00
2023-02-24T02:23:01.533Z,0.00
2023-02-24T02:24:01.540Z,0.00
2023-02-24T02:25:01.551Z,0.00
2023-02-24T02:26:01.516Z,0.00
2023-02-24T02:27:01.527Z,0.00
2023-02-24T02:28:01.505Z,0.00
2023-02-24T02:29:01.525Z,0.00
2023-02-24T02:30:01.514Z,0.00
2023-02-24T02:31:01.630Z,0.00
2023-02-24T02:32:01.686Z,0.00
2023-02-24T02:33:01.492Z,0.00
2023-02-24T02:34:01.481Z,0.00
2023-02-24T02:35:01.490Z,0.00
2023-02-24T02:36:01.504Z,0.00
2023-02-24T02:37:01.511Z,0.00
2023-02-24T02:38:01.468Z,0.00
2023-02-24T02:39:01.486Z,0.00
2023-02-24T02:40:01.465Z,0.00
2023-02-24T02:41:01.469Z,0.00
2023-02-24T02:42:01.465Z,0.00
2023-02-24T02:43:01.446Z,0.00
2023-02-24T02:44:01.437Z,0.00
2023-02-24T02:45:01.429Z,0.00
2023-02-24T02:46:01.463Z,0.00
2023-02-24T02:47:01.427Z,0.00
2023-02-24T02:48:01.450Z,0.00
2023-02-24T02:49:01.417Z,0.00
2023-02-24T02:50:01.424Z,0.00
2023-02-24T02:51:01.421Z,0.00
2023-02-24T02:52:01.394Z,0.00
2023-02-24T02:53:01.433Z,0.00
2023-02-24T02:54:01.387Z,0.00
2023-02-24T02:55:01.395Z,0.00
2023-02-24T02:56:01.373Z,0.00
2023-02-24T02:57:01.432Z,0.00
2023-02-24T02:58:01.393Z,0.00
2023-02-24T02:59:01.389Z,0.00
2023-02-24T03:00:01.379Z,0.00
2023-02-24T03:01:01.414Z,0.00
2023-02-24T03:02:01.367Z,0.00
2023-02-24T03:03:01.344Z,0.00
2023-02-24T03:04:01.346Z,0.00
2023-02-24T03:05:01.414Z,0.00
2023-02-24T03:06:01.330Z,0.00
2023-02-24T03:07:01.325Z,0.00
2023-02-24T03:08:01.332Z,0.00
2023-02-24T03:09:01.352Z,0.00
2023-02-24T03:10:01.326Z,0.00
2023-02-24T03:11:01.308Z,0.00
2023-02-24T03:12:01.298Z,0.00
2023-02-24T03:13:01.322Z,0.00
2023-02-24T03:14:01.302Z,0.00
2023-02-24T03:15:01.287Z,0.00
2023-02-24T03:16:01.304Z,0.00
2023-02-24T03:17:01.281Z,0.00
2023-02-24T03:18:01.269Z,0.00
2023-02-24T03:19:01.279Z,0.00
2023-02-24T03:20:01.279Z,0.00
2023-02-24T03:21:01.260Z,0.00
2023-02-24T03:22:01.273Z,0.00
2023-02-24T03:23:01.254Z,0.00
2023-02-24T03:24:01.261Z,0.00
2023-02-24T03:25:01.277Z,0.00
2023-02-24T03:26:01.250Z,0.00
2023-02-24T03:27:01.255Z,0.00
2023-02-24T03:28:01.227Z,0.00
2023-02-24T03:29:01.227Z,0.00
2023-02-24T03:30:01.284Z,0.00
2023-02-24T03:31:01.265Z,0.00
2023-02-24T03:32:01.414Z,0.00
2023-02-24T03:33:01.245Z,0.00
2023-02-24T03:34:01.197Z,0.00
2023-02-24T03:35:01.209Z,0.00
2023-02-24T03:36:01.192Z,0.00
2023-02-24T03:37:01.209Z,0.00
2023-02-24T03:38:01.184Z,0.00
2023-02-24T03:39:01.204Z,0.00
2023-02-24T03:40:01.187Z,0.00
2023-02-24T03:41:01.211Z,0.00
2023-02-24T03:42:01.181Z,0.00
2023-02-24T03:43:01.162Z,0.00
2023-02-24T03:44:01.191Z,0.00
2023-02-24T03:45:05.210Z,0.00
2023-02-24T03:46:01.197Z,0.00
2023-02-24T03:47:01.144Z,0.00
2023-02-24T03:48:01.137Z,0.00
2023-02-24T03:49:01.153Z,0.00
2023-02-24T03:50:01.125Z,0.00
2023-02-24T03:51:01.141Z,0.00
2023-02-24T03:52:43.399Z,0.00
2023-02-24T03:53:43.398Z,0.00
2023-02-24T03:54:43.415Z,0.00
2023-02-24T03:55:43.398Z,0.00
2023-02-24T03:56:43.386Z,0.00
2023-02-24T03:57:43.363Z,0.00
2023-02-24T03:58:43.383Z,0.00
2023-02-24T03:59:43.359Z,0.00
2023-02-24T04:00:43.363Z,0.00
2023-02-24T04:01:43.349Z,0.00
2023-02-24T04:02:43.386Z,0.00
2023-02-24T04:03:43.341Z,0.00
2023-02-24T04:04:43.367Z,0.00
2023-02-24T04:05:43.323Z,0.00
2023-02-24T04:06:43.326Z,0.00
2023-02-24T04:07:43.317Z,0.00
2023-02-24T04:08:43.314Z,0.00
2023-02-24T04:09:43.306Z,0.00
2023-02-24T04:10:43.321Z,0.00
2023-02-24T04:11:43.306Z,0.00
2023-02-24T04:12:43.414Z,0.00
2023-02-24T04:13:43.345Z,0.00
2023-02-24T04:14:43.301Z,0.00
2023-02-24T04:15:43.307Z,0.00
2023-02-24T04:16:43.292Z,0.00
2023-02-24T04:17:43.298Z,0.00
2023-02-24T04:18:43.269Z,0.00
2023-02-24T04:19:43.278Z,0.00
2023-02-24T04:20:43.282Z,0.00
2023-02-24T04:21:43.270Z,0.00
2023-02-24T04:22:43.263Z,0.00
2023-02-24T04:23:43.307Z,0.00
2023-02-24T04:24:43.250Z,0.00
2023-02-24T04:25:43.230Z,0.00
2023-02-24T04:26:43.242Z,0.00
2023-02-24T04:27:43.244Z,0.00
2023-02-24T04:28:43.241Z,0.00
2023-02-24T04:29:43.220Z,0.00
2023-02-24T04:30:43.274Z,0.00
2023-02-24T04:31:43.393Z,0.00
2023-02-24T04:32:43.303Z,0.00
2023-02-24T04:33:43.205Z,0.00
2023-02-24T04:34:43.207Z,0.00
2023-02-24T04:35:43.199Z,0.00
2023-02-24T04:36:43.204Z,0.00
2023-02-24T04:37:43.191Z,0.00
2023-02-24T04:38:43.187Z,0.00
2023-02-24T04:39:43.175Z,0.00
2023-02-24T04:40:43.198Z,0.00
2023-02-24T04:41:43.163Z,0.00
2023-02-24T04:42:43.172Z,0.00
2023-02-24T04:43:43.161Z,0.00
2023-02-24T04:44:43.189Z,0.00
2023-02-24T04:45:43.152Z,0.00
2023-02-24T04:46:43.181Z,0.00
2023-02-24T04:47:43.161Z,0.00
2023-02-24T04:48:43.148Z,0.00
2023-02-24T04:49:43.133Z,0.00
2023-02-24T04:50:43.115Z,0.00
2023-02-24T04:51:43.111Z,0.00
2023-02-24T04:52:43.114Z,0.00
2023-02-24T04:53:43.101Z,0.00
2023-02-24T04:54:43.121Z,0.00
2023-02-24T04:55:43.109Z,0.00
2023-02-24T04:56:43.118Z,0.00
2023-02-24T04:57:43.082Z,0.00
2023-02-24T04:58:43.084Z,0.00
2023-02-24T04:59:43.074Z,0.00
2023-02-24T05:00:43.105Z,0.00
2023-02-24T05:01:43.069Z,0.00
2023-02-24T05:02:43.079Z,0.00
2023-02-24T05:03:43.164Z,0.00
2023-02-24T05:04:43.126Z,0.00
2023-02-24T05:05:43.086Z,0.00
2023-02-24T05:06:43.061Z,0.00
2023-02-24T05:07:43.042Z,0.00
2023-02-24T05:08:43.054Z,0.00
2023-02-24T05:09:43.042Z,0.00
2023-02-24T05:10:43.029Z,0.00
2023-02-24T05:11:43.022Z,0.00
2023-02-24T05:12:43.044Z,0.00
2023-02-24T05:13:43.022Z,0.00
2023-02-24T05:14:43.047Z,0.00
2023-02-24T05:15:43.020Z,0.00
2023-02-24T05:16:43.038Z,0.00
2023-02-24T05:17:42.993Z,0.00
2023-02-24T05:18:42.993Z,0.00
2023-02-24T05:19:42.980Z,0.00
2023-02-24T05:20:42.994Z,0.00
2023-02-24T05:21:42.981Z,0.00
2023-02-24T05:22:42.999Z,0.00
2023-02-24T05:23:42.987Z,0.00
2023-02-24T05:24:42.975Z,0.00
2023-02-24T05:25:43.082Z,0.00
2023-02-24T05:26:42.975Z,0.00
2023-02-24T05:27:42.957Z,0.00
2023-02-24T05:28:42.942Z,0.00
2023-02-24T05:29:42.937Z,0.00
2023-02-24T05:30:42.979Z,0.00
2023-02-24T05:31:43.132Z,0.00
2023-02-24T05:32:43.053Z,0.00
2023-02-24T05:33:42.924Z,0.00
2023-02-24T05:34:42.948Z,0.00
2023-02-24T05:35:42.935Z,0.00
2023-02-24T05:36:42.923Z,0.00
2023-02-24T05:37:42.911Z,0.00
2023-02-24T05:38:42.907Z,0.00
2023-02-24T05:39:42.891Z,0.00
2023-02-24T05:40:42.892Z,0.00
2023-02-24T05:41:42.908Z,0.00
2023-02-24T05:42:42.877Z,0.00
2023-02-24T05:43:42.887Z,0.00
2023-02-24T05:44:42.880Z,0.00
2023-02-24T05:45:42.872Z,0.00
2023-02-24T05:46:42.951Z,0.00
2023-02-24T05:47:42.870Z,0.00
2023-02-24T05:48:42.879Z,0.00
2023-02-24T05:49:42.854Z,0.00
2023-02-24T05:50:42.860Z,0.00
2023-02-24T05:51:42.852Z,0.00
2023-02-24T05:52:42.844Z,0.00
2023-02-24T05:53:42.841Z,0.00
2023-02-24T05:54:42.853Z,0.00
2023-02-24T05:55:42.812Z,0.00
2023-02-24T05:56:42.824Z,0.00
2023-02-24T05:57:42.807Z,0.00
2023-02-24T05:58:42.825Z,0.00
2023-02-24T05:59:42.816Z,0.00
2023-02-24T06:00:42.788Z,0.00
2023-02-24T06:01:42.844Z,0.00
2023-02-24T06:02:42.861Z,0.00
2023-02-24T06:03:42.771Z,0.00
2023-02-24T06:04:42.819Z,0.00
2023-02-24T06:05:42.769Z,0.00
2023-02-24T06:06:42.784Z,0.00
2023-02-24T06:07:42.767Z,0.00
2023-02-24T06:08:42.770Z,0.00
2023-02-24T06:09:42.757Z,0.00
2023-02-24T06:10:42.752Z,0.00
2023-02-24T06:11:42.799Z,0.00
2023-02-24T06:12:42.755Z,4.00
2023-02-24T06:13:42.742Z,0.00
2023-02-24T06:14:42.728Z,4.00
2023-02-24T06:15:42.740Z,0.00
2023-02-24T06:16:42.812Z,4.00
2023-02-24T06:17:42.719Z,0.00
2023-02-24T06:18:42.723Z,4.00
2023-02-24T06:19:42.723Z,4.00
2023-02-24T06:20:42.734Z,4.00
2023-02-24T06:21:42.705Z,4.00
2023-02-24T06:22:42.741Z,4.00
2023-02-24T06:23:42.702Z,4.00
2023-02-24T06:24:42.682Z,8.00
2023-02-24T06:25:42.675Z,8.00
2023-02-24T06:26:42.689Z,8.00
2023-02-24T06:27:42.665Z,8.00
2023-02-24T06:28:42.667Z,12.00
2023-02-24T06:29:42.661Z,8.00
2023-02-24T06:30:42.698Z,12.00
2023-02-24T06:31:42.756Z,12.00
2023-02-24T06:32:42.823Z,16.00
2023-02-24T06:33:42.654Z,16.00
2023-02-24T06:34:42.653Z,12.00
2023-02-24T06:35:42.660Z,12.00
2023-02-24T06:36:42.658Z,16.00
2023-02-24T06:37:42.645Z,12.00
2023-02-24T06:38:42.634Z,20.00
2023-02-24T06:39:42.641Z,20.00
2023-02-24T06:40:42.615Z,20.00
2023-02-24T06:41:42.720Z,24.00
2023-02-24T06:42:42.633Z,24.00
2023-02-24T06:43:42.597Z,28.00
2023-02-24T06:44:42.595Z,28.00
2023-02-24T06:45:42.669Z,28.00
2023-02-24T06:46:42.597Z,32.00
2023-02-24T06:47:42.593Z,32.00
2023-02-24T06:48:42.586Z,28.00
2023-02-24T06:49:42.601Z,32.00
2023-02-24T06:50:42.572Z,28.00
2023-02-24T06:51:42.622Z,32.00
2023-02-24T06:52:42.575Z,28.00
2023-02-24T06:53:42.549Z,32.00
2023-02-24T06:54:42.562Z,32.00
2023-02-24T06:55:42.553Z,32.00
2023-02-24T06:56:42.554Z,36.00
2023-02-24T06:57:42.531Z,36.00
2023-02-24T06:58:42.531Z,40.00
2023-02-24T06:59:42.537Z,40.00
2023-02-24T07:00:42.540Z,44.00
2023-02-24T07:01:42.510Z,44.00
2023-02-24T07:02:42.530Z,44.00
2023-02-24T07:03:42.535Z,48.00
2023-02-24T07:04:42.499Z,44.00
2023-02-24T07:05:42.509Z,44.00
2023-02-24T07:06:42.511Z,48.00
2023-02-24T07:07:42.501Z,48.00
2023-02-24T07:08:42.531Z,48.00
2023-02-24T07:09:42.744Z,52.00
2023-02-24T07:10:42.488Z,52.00
2023-02-24T07:11:43.288Z,56.00
2023-02-24T07:12:42.469Z,60.00
2023-02-24T07:13:42.474Z,56.00
2023-02-24T07:14:42.467Z,60.00
2023-02-24T07:15:42.469Z,64.00
2023-02-24T07:16:42.512Z,68.00
2023-02-24T07:17:42.456Z,64.00
2023-02-24T07:18:42.455Z,60.00
2023-02-24T07:19:42.439Z,56.00
2023-02-24T07:20:42.437Z,56.00
2023-02-24T07:21:42.432Z,56.00
2023-02-24T07:22:42.415Z,48.00
2023-02-24T07:23:42.438Z,48.00
2023-02-24T07:24:42.433Z,44.00
2023-02-24T07:25:42.406Z,44.00
2023-02-24T07:26:42.399Z,48.00
2023-02-24T07:27:42.406Z,48.00
2023-02-24T07:28:42.402Z,48.00
2023-02-24T07:29:42.402Z,52.00
2023-02-24T07:30:42.492Z,52.00
2023-02-24T07:31:42.726Z,52.00
2023-02-24T07:32:42.400Z,56.00
2023-02-24T07:33:42.375Z,56.00
2023-02-24T07:34:42.373Z,60.00
2023-02-24T07:35:42.383Z,60.00
2023-02-24T07:36:42.362Z,60.00
2023-02-24T07:37:42.350Z,60.00
2023-02-24T07:38:42.337Z,60.00
2023-02-24T07:39:42.352Z,56.00
2023-02-24T07:40:42.361Z,52.00
2023-02-24T07:41:42.322Z,52.00
2023-02-24T07:42:42.334Z,52.00
2023-02-24T07:43:42.317Z,52.00
2023-02-24T07:44:42.331Z,52.00
2023-02-24T07:45:42.388Z,52.00
2023-02-24T07:46:42.313Z,60.00
2023-02-24T07:47:42.295Z,60.00
2023-02-24T07:48:42.300Z,56.00
2023-02-24T07:49:42.307Z,56.00
2023-02-24T07:50:42.279Z,56.00
2023-02-24T07:51:42.282Z,56.00
2023-02-24T07:52:42.272Z,64.00
2023-02-24T07:53:42.267Z,64.00
2023-02-24T07:54:42.286Z,68.00
2023-02-24T07:55:42.262Z,72.00
2023-02-24T07:56:42.304Z,80.00
2023-02-24T07:57:42.257Z,84.00
2023-02-24T07:58:42.265Z,88.00
2023-02-24T07:59:42.254Z,96.00
2023-02-24T08:00:42.257Z,104.00
2023-02-24T08:01:42.252Z,104.00
2023-02-24T08:02:42.263Z,104.00
2023-02-24T08:03:42.232Z,112.00
2023-02-24T08:04:42.219Z,116.00
2023-02-24T08:05:42.261Z,132.00
2023-02-24T08:06:42.227Z,140.00
2023-02-24T08:07:42.226Z,140.00
2023-02-24T08:08:42.197Z,140.00
2023-02-24T08:09:42.208Z,132.00
2023-02-24T08:10:42.205Z,132.00
2023-02-24T08:11:42.213Z,132.00
2023-02-24T08:12:42.225Z,132.00
2023-02-24T08:13:42.183Z,144.00
2023-02-24T08:14:42.182Z,148.00
2023-02-24T08:15:42.220Z,156.00
2023-02-24T08:16:42.177Z,164.00
2023-02-24T08:17:42.181Z,164.00
2023-02-24T08:18:42.165Z,160.00
2023-02-24T08:19:42.173Z,156.00
2023-02-24T08:20:42.166Z,160.00
2023-02-24T08:21:42.172Z,160.00
2023-02-24T08:22:42.159Z,152.00
2023-02-24T08:23:42.148Z,152.00
2023-02-24T08:24:42.163Z,152.00
2023-02-24T08:25:42.155Z,156.00
2023-02-24T08:26:42.197Z,156.00
2023-02-24T08:27:42.165Z,160.00
2023-02-24T08:28:42.143Z,160.00
2023-02-24T08:29:42.149Z,168.00
2023-02-24T08:30:42.146Z,176.00
2023-02-24T08:31:42.269Z,188.00
2023-02-24T08:32:42.308Z,188.00
2023-02-24T08:33:42.113Z,180.00
2023-02-24T08:34:42.125Z,184.00
2023-02-24T08:35:42.112Z,184.00
2023-02-24T08:36:42.092Z,180.00
2023-02-24T08:37:42.089Z,176.00
2023-02-24T08:38:42.551Z,172.00
2023-02-24T08:39:42.109Z,168.00
2023-02-24T08:40:42.102Z,168.00
2023-02-24T08:41:42.076Z,168.00
2023-02-24T08:42:42.081Z,164.00
2023-02-24T08:43:42.068Z,164.00
2023-02-24T08:44:42.533Z,176.00
2023-02-24T08:45:42.078Z,180.00
2023-02-24T08:46:42.123Z,172.00
2023-02-24T08:47:42.096Z,168.00
2023-02-24T08:48:42.064Z,168.00
2023-02-24T08:49:42.056Z,164.00
2023-02-24T08:50:42.053Z,160.00
2023-02-24T08:51:42.067Z,168.00
2023-02-24T08:52:42.064Z,176.00
2023-02-24T08:53:42.069Z,180.00
2023-02-24T08:54:42.032Z,180.00
2023-02-24T08:55:42.050Z,192.00
2023-02-24T08:56:42.039Z,192.00
2023-02-24T08:57:42.042Z,188.00
2023-02-24T08:58:42.037Z,188.00
2023-02-24T08:59:42.021Z,184.00
2023-02-24T09:00:42.134Z,176.00
2023-02-24T09:01:42.026Z,168.00
2023-02-24T09:02:42.020Z,160.00
2023-02-24T09:03:42.012Z,156.00
2023-02-24T09:04:42.070Z,152.00
2023-02-24T09:05:42.006Z,152.00
2023-02-24T09:06:42.013Z,144.00
2023-02-24T09:07:42.017Z,144.00
2023-02-24T09:08:41.989Z,140.00
2023-02-24T09:09:42.090Z,128.00
2023-02-24T09:10:41.997Z,132.00
2023-02-24T09:11:41.999Z,136.00
2023-02-24T09:12:41.994Z,156.00
2023-02-24T09:13:41.982Z,160.00
2023-02-24T09:14:41.968Z,168.00
2023-02-24T09:15:41.980Z,176.00
2023-02-24T09:16:42.076Z,188.00
2023-02-24T09:17:41.960Z,196.00
2023-02-24T09:18:41.956Z,200.00
2023-02-24T09:19:41.968Z,200.00
2023-02-24T09:20:41.967Z,180.00
2023-02-24T09:21:41.953Z,176.00
2023-02-24T09:22:41.951Z,176.00
2023-02-24T09:23:41.952Z,180.00
2023-02-24T09:24:41.956Z,192.00
2023-02-24T09:25:41.946Z,204.00
2023-02-24T09:26:41.927Z,220.00
2023-02-24T09:27:41.935Z,208.00
2023-02-24T09:28:41.966Z,196.00
2023-02-24T09:29:41.916Z,196.00
2023-02-24T09:30:41.965Z,184.00
2023-02-24T09:31:42.162Z,192.00
2023-02-24T09:32:42.085Z,224.00
2023-02-24T09:33:42.193Z,252.00
2023-02-24T09:34:41.955Z,248.00
2023-02-24T09:35:41.995Z,224.00
2023-02-24T09:36:42.687Z,236.00
2023-02-24T09:37:41.903Z,252.00
2023-02-24T09:38:41.899Z,240.00
2023-02-24T09:39:41.902Z,284.00
2023-02-24T09:40:41.886Z,308.00
2023-02-24T09:41:41.878Z,316.00
2023-02-24T09:42:41.869Z,336.00
2023-02-24T09:43:41.875Z,352.00
2023-02-24T09:44:41.877Z,328.00
2023-02-24T09:45:42.032Z,296.00
2023-02-24T09:46:41.878Z,252.00
2023-02-24T09:47:41.855Z,228.00
2023-02-24T09:48:41.876Z,284.00
2023-02-24T09:49:41.867Z,276.00
2023-02-24T09:51:01.440Z,252.00
2023-02-24T09:51:41.842Z,232.00
2023-02-24T09:52:41.859Z,248.00
2023-02-24T09:53:41.936Z,236.00
2023-02-24T09:54:41.844Z,180.00
2023-02-24T09:55:41.828Z,180.00
2023-02-24T09:56:41.824Z,172.00
2023-02-24T09:57:41.840Z,168.00
2023-02-24T09:58:43.955Z,180.00
2023-02-24T09:59:41.828Z,204.00
2023-02-24T10:00:41.802Z,208.00
2023-02-24T10:01:41.870Z,184.00
2023-02-24T10:02:42.104Z,188.00
2023-02-24T10:03:41.815Z,188.00
2023-02-24T10:04:41.817Z,200.00
2023-02-24T10:05:42.264Z,188.00
2023-02-24T10:06:41.784Z,168.00
2023-02-24T10:07:41.784Z,168.00
2023-02-24T10:08:41.782Z,192.00
2023-02-24T10:09:41.799Z,220.00
2023-02-24T10:10:41.783Z,220.00
2023-02-24T10:11:41.782Z,220.00
2023-02-24T10:12:41.764Z,236.00
2023-02-24T10:13:41.762Z,296.00
2023-02-24T10:14:44.029Z,316.00
2023-02-24T10:15:41.777Z,316.00
2023-02-24T10:16:41.941Z,296.00
2023-02-24T10:17:41.750Z,288.00
2023-02-24T10:18:41.755Z,276.00
2023-02-24T10:19:41.755Z,272.00
2023-02-24T10:20:41.791Z,292.00
2023-02-24T10:21:41.733Z,300.00
2023-02-24T10:22:41.728Z,288.00
2023-02-24T10:23:43.329Z,288.00
2023-02-24T10:24:41.737Z,284.00
2023-02-24T10:25:41.734Z,296.00
2023-02-24T10:26:51.144Z,292.00
2023-02-24T10:27:41.714Z,296.00
2023-02-24T10:28:41.711Z,288.00
2023-02-24T10:29:41.710Z,272.00
2023-02-24T10:30:41.890Z,264.00
2023-02-24T10:31:41.899Z,276.00
2023-02-24T10:32:41.777Z,248.00
2023-02-24T10:33:41.701Z,228.00
2023-02-24T10:34:41.709Z,260.00
2023-02-24T10:35:41.683Z,256.00
2023-02-24T10:36:41.713Z,260.00
2023-02-24T10:37:41.689Z,236.00
2023-02-24T10:38:41.671Z,216.00
2023-02-24T10:39:41.677Z,196.00
2023-02-24T10:40:41.663Z,216.00
2023-02-24T10:41:41.699Z,196.00
2023-02-24T10:42:41.671Z,168.00
2023-02-24T10:43:41.685Z,188.00
2023-02-24T10:44:43.329Z,196.00
2023-02-24T10:45:41.659Z,192.00
2023-02-24T10:46:42.965Z,176.00
2023-02-24T10:47:41.652Z,152.00
2023-02-24T10:48:42.593Z,148.00
2023-02-24T10:49:41.637Z,136.00
2023-02-24T10:50:54.915Z,132.00
2023-02-24T10:51:41.622Z,140.00
2023-02-24T10:52:41.638Z,144.00
2023-02-24T10:53:41.633Z,132.00
2023-02-24T10:54:41.614Z,160.00
2023-02-24T10:55:41.622Z,168.00
2023-02-24T10:56:41.631Z,164.00
2023-02-24T10:57:53.526Z,176.00
2023-02-24T10:58:41.592Z,172.00
2023-02-24T10:59:41.626Z,180.00
2023-02-24T11:00:41.585Z,172.00
2023-02-24T11:01:41.652Z,168.00
2023-02-24T11:02:41.604Z,172.00
2023-02-24T11:03:41.612Z,172.00
2023-02-24T11:04:41.585Z,152.00
2023-02-24T11:05:41.575Z,168.00
2023-02-24T11:06:41.596Z,168.00
2023-02-24T11:07:41.569Z,148.00
2023-02-24T11:08:41.598Z,140.00
2023-02-24T11:09:41.556Z,152.00
2023-02-24T11:10:41.545Z,144.00
2023-02-24T11:11:41.552Z,140.00
2023-02-24T11:12:41.574Z,132.00
2023-02-24T11:13:41.537Z,124.00
2023-02-24T11:14:41.541Z,128.00
2023-02-24T11:15:43.486Z,128.00
2023-02-24T11:16:41.521Z,128.00
2023-02-24T11:17:41.533Z,128.00
2023-02-24T11:18:41.543Z,132.00
2023-02-24T11:19:41.509Z,128.00
2023-02-24T11:20:48.895Z,128.00
2023-02-24T11:21:42.801Z,128.00
2023-02-24T11:22:41.529Z,124.00
2023-02-24T11:23:41.511Z,116.00
2023-02-24T11:24:41.521Z,108.00
2023-02-24T11:25:41.494Z,100.00
2023-02-24T11:26:41.495Z,96.00
2023-02-24T11:27:41.478Z,88.00
2023-02-24T11:28:41.487Z,88.00
2023-02-24T11:29:41.480Z,92.00
2023-02-24T11:30:41.550Z,96.00
2023-02-24T11:31:41.698Z,92.00
2023-02-24T11:32:41.499Z,96.00
2023-02-24T11:33:41.467Z,92.00
2023-02-24T11:34:41.454Z,96.00
2023-02-24T11:35:41.532Z,96.00
2023-02-24T11:36:41.457Z,96.00
2023-02-24T11:37:43.111Z,88.00
2023-02-24T11:38:41.436Z,92.00
2023-02-24T11:39:41.439Z,96.00
2023-02-24T11:40:41.458Z,88.00
2023-02-24T11:41:41.432Z,88.00
2023-02-24T11:42:41.424Z,100.00
2023-02-24T11:43:41.427Z,96.00
2023-02-24T11:44:41.426Z,100.00
2023-02-24T11:45:41.416Z,96.00
2023-02-24T11:46:41.476Z,100.00
2023-02-24T11:47:41.406Z,96.00
2023-02-24T11:48:41.396Z,100.00
2023-02-24T11:49:41.392Z,100.00
2023-02-24T11:50:41.407Z,100.00
2023-02-24T11:51:41.396Z,96.00
2023-02-24T11:52:41.388Z,88.00
2023-02-24T11:53:41.392Z,92.00
2023-02-24T11:54:41.380Z,96.00
2023-02-24T11:55:41.382Z,100.00
2023-02-24T11:56:41.391Z,92.00
2023-02-24T11:57:41.350Z,92.00
2023-02-24T11:58:41.349Z,96.00
2023-02-24T11:59:41.362Z,96.00
2023-02-24T12:00:41.368Z,96.00
2023-02-24T12:01:41.350Z,104.00
2023-02-24T12:02:41.381Z,108.00
2023-02-24T12:03:41.322Z,116.00
2023-02-24T12:04:41.340Z,120.00
2023-02-24T12:05:41.359Z,124.00
2023-02-24T12:06:41.325Z,124.00
2023-02-24T12:07:41.316Z,124.00
2023-02-24T12:08:41.312Z,120.00
2023-02-24T12:09:41.318Z,120.00
2023-02-24T12:10:41.353Z,116.00
2023-02-24T12:11:41.316Z,120.00
2023-02-24T12:12:41.345Z,124.00
2023-02-24T12:13:41.305Z,140.00
2023-02-24T12:14:41.310Z,156.00
2023-02-24T12:15:41.284Z,164.00
2023-02-24T12:16:41.314Z,168.00
2023-02-24T12:17:41.262Z,164.00
2023-02-24T12:18:41.275Z,148.00
2023-02-24T12:19:41.248Z,144.00
2023-02-24T12:20:41.266Z,140.00
2023-02-24T12:21:41.255Z,140.00
2023-02-24T12:22:41.266Z,164.00
2023-02-24T12:23:41.236Z,160.00
2023-02-24T12:24:41.246Z,136.00
2023-02-24T12:25:41.236Z,144.00
2023-02-24T12:26:41.232Z,164.00
2023-02-24T12:27:41.256Z,172.00
2023-02-24T12:28:41.261Z,192.00
2023-02-24T12:29:41.223Z,208.00
2023-02-24T12:30:41.239Z,204.00
2023-02-24T12:31:41.306Z,192.00
2023-02-24T12:32:41.421Z,168.00
2023-02-24T12:33:41.205Z,160.00
2023-02-24T12:34:41.204Z,148.00
2023-02-24T12:35:41.191Z,136.00
2023-02-24T12:36:41.187Z,132.00
2023-02-24T12:37:41.181Z,144.00
2023-02-24T12:38:41.294Z,152.00
2023-02-24T12:39:41.161Z,160.00
2023-02-24T12:40:41.166Z,164.00
2023-02-24T12:41:41.170Z,164.00
2023-02-24T12:42:41.173Z,148.00
2023-02-24T12:43:41.147Z,136.00
2023-02-24T12:44:41.157Z,124.00
2023-02-24T12:45:41.251Z,120.00
2023-02-24T12:46:41.167Z,120.00
2023-02-24T12:47:41.154Z,112.00
2023-02-24T12:48:41.137Z,112.00
2023-02-24T12:49:41.131Z,108.00
2023-02-24T12:50:41.136Z,112.00
2023-02-24T12:51:41.125Z,120.00
2023-02-24T12:52:41.105Z,124.00
2023-02-24T12:53:41.096Z,124.00
2023-02-24T12:54:41.163Z,120.00
2023-02-24T12:55:41.129Z,120.00
2023-02-24T12:56:41.086Z,116.00